createdAt,value
2022-09-17T10:32:06.904Z,13.90
2022-09-17T10:33:51.474Z,13.70
2022-09-17T10:35:28.549Z,12.70
2022-09-17T10:37:01.669Z,12.10
2022-09-17T10:38:37.398Z,12.00
2022-09-17T10:40:32.614Z,12.30
2022-09-17T10:42:07.049Z,12.50
2022-09-17T10:43:39.468Z,12.80
2022-09-17T10:45:25.166Z,12.90
2022-09-17T10:47:07.227Z,13.30
2022-09-17T10:48:44.878Z,13.60
2022-09-17T10:50:19.616Z,13.80
2022-09-17T10:51:53.130Z,13.60
2022-09-17T10:53:26.388Z,13.50
2022-09-17T10:55:24.481Z,13.60
2022-09-17T10:57:00.649Z,13.60
2022-09-17T10:58:45.010Z,13.60
2022-09-17T11:00:20.310Z,13.70
2022-09-17T11:02:06.219Z,13.70
2022-09-17T11:03:52.742Z,13.50
2022-09-17T11:05:41.137Z,13.70
2022-09-17T11:07:31.209Z,13.70
2022-09-17T11:09:15.555Z,14.00
2022-09-17T11:10:58.534Z,14.70
2022-09-17T11:12:43.100Z,15.70
2022-09-17T11:14:35.996Z,16.90
2022-09-17T11:16:19.995Z,17.00
2022-09-17T11:18:07.334Z,18.10
2022-09-17T11:19:53.378Z,17.70
2022-09-17T11:21:46.749Z,18.20
2022-09-17T11:23:33.305Z,18.00
2022-09-17T11:25:34.769Z,18.30
2022-09-17T11:27:16.555Z,16.30
2022-09-17T11:29:01.919Z,15.60
2022-09-17T11:30:47.305Z,15.20
2022-09-17T11:32:35.786Z,14.80
2022-09-17T11:34:28.814Z,14.20
2022-09-17T11:36:11.933Z,14.20
2022-09-17T11:37:49.314Z,14.30
2022-09-17T11:39:26.689Z,14.00
2022-09-17T11:41:05.613Z,14.00
2022-09-17T11:42:46.510Z,14.00
2022-09-17T11:44:26.348Z,14.10
2022-09-17T11:46:05.750Z,14.20
2022-09-17T11:47:45.904Z,14.40
2022-09-17T11:49:28.410Z,15.60
2022-09-17T11:51:13.884Z,16.60
2022-09-17T11:52:55.958Z,17.60
2022-09-17T11:54:32.339Z,17.60
2022-09-17T11:56:10.918Z,16.70
2022-09-17T11:57:45.582Z,16.70
2022-09-17T11:59:26.256Z,16.60
2022-09-17T12:01:04.911Z,15.10
2022-09-17T12:02:48.925Z,13.80
2022-09-17T12:04:40.635Z,13.20
2022-09-17T12:06:17.437Z,12.80
2022-09-17T12:07:55.298Z,12.70
2022-09-17T12:09:33.496Z,12.70
2022-09-17T12:11:14.542Z,12.90
2022-09-17T12:13:01.506Z,12.90
2022-09-17T12:14:44.210Z,12.90
2022-09-17T12:16:22.195Z,13.00
2022-09-17T12:18:30.458Z,13.10
2022-09-17T12:20:03.024Z,13.20
2022-09-17T12:21:41.550Z,13.20
2022-09-17T12:23:19.780Z,13.40
2022-09-17T12:24:56.397Z,13.60
2022-09-17T12:26:46.068Z,13.80
2022-09-17T12:28:26.930Z,14.30
2022-09-17T12:30:16.481Z,14.20
2022-09-17T12:31:59.416Z,14.10
2022-09-17T12:33:38.680Z,14.10
2022-09-17T12:35:21.201Z,13.90
2022-09-17T12:37:05.412Z,13.70
2022-09-17T12:39:07.162Z,13.60
2022-09-17T12:40:46.364Z,14.00
2022-09-17T12:42:45.224Z,14.40
2022-09-17T12:44:31.043Z,14.40
2022-09-17T12:46:27.929Z,14.20
2022-09-17T12:48:39.910Z,14.20
2022-09-17T12:50:21.309Z,13.70
2022-09-17T12:52:01.353Z,13.60
2022-09-17T12:53:38.678Z,13.70
2022-09-17T12:55:28.462Z,13.70
2022-09-17T12:57:09.682Z,13.60
2022-09-17T12:58:54.874Z,13.70
2022-09-17T13:00:28.638Z,13.90
2022-09-17T13:02:05.564Z,14.00
2022-09-17T13:03:43.854Z,14.40
2022-09-17T13:05:41.262Z,14.70
2022-09-17T13:07:40.396Z,14.80
2022-09-17T13:09:47.062Z,15.10
2022-09-17T13:11:41.371Z,15.60
2022-09-17T13:13:34.070Z,15.00
2022-09-17T13:15:43.694Z,15.70
2022-09-17T13:17:23.587Z,16.40
2022-09-17T13:19:16.193Z,16.90
2022-09-17T13:21:02.910Z,16.60
2022-09-17T13:22:46.384Z,17.60
2022-09-17T13:24:21.609Z,17.70
2022-09-17T13:25:54.757Z,17.60
2022-09-17T13:27:27.904Z,17.30
2022-09-17T13:29:01.933Z,16.90
2022-09-17T13:30:57.008Z,16.30
2022-09-17T13:32:52.500Z,15.70
2022-09-17T13:34:31.239Z,14.80
2022-09-17T13:36:04.761Z,14.40
2022-09-17T13:37:40.705Z,13.90
2022-09-17T13:39:36.790Z,13.60
2022-09-17T13:41:21.377Z,13.40
2022-09-17T13:42:56.942Z,13.30
2022-09-17T13:44:30.181Z,13.20
2022-09-17T13:46:12.554Z,13.70
2022-09-17T13:47:52.469Z,14.10
2022-09-17T13:49:25.726Z,14.00
2022-09-17T13:50:57.896Z,13.70
2022-09-17T13:52:35.911Z,13.60
2022-09-17T13:54:10.933Z,13.90
2022-09-17T13:55:46.490Z,14.40
2022-09-17T13:57:19.951Z,15.00
2022-09-17T13:58:52.304Z,15.00
2022-09-17T14:00:56.736Z,15.50
2022-09-17T14:02:37.513Z,15.80
2022-09-17T14:04:33.619Z,16.00
2022-09-17T14:06:39.793Z,15.80
2022-09-17T14:08:38.696Z,15.90
2022-09-17T14:12:50.890Z,16.10
2022-09-17T14:14:52.006Z,16.00
2022-09-17T14:16:37.079Z,16.20
2022-09-17T14:18:35.403Z,16.50
2022-09-17T14:20:10.216Z,16.20
2022-09-17T14:21:44.932Z,16.10
2022-09-17T14:23:17.972Z,16.50
2022-09-17T14:24:53.029Z,16.70
2022-09-17T14:26:47.329Z,16.50
2022-09-17T14:28:33.154Z,17.00
2022-09-17T14:30:17.197Z,17.10
2022-09-17T14:31:50.655Z,16.70
2022-09-17T14:33:28.513Z,16.50
2022-09-17T14:35:03.420Z,16.00
2022-09-17T14:36:39.194Z,15.90
2022-09-17T14:38:16.286Z,15.30
2022-09-17T14:39:50.160Z,15.20
2022-09-17T14:41:25.983Z,15.40
2022-09-17T14:42:59.966Z,15.30
2022-09-17T14:44:34.611Z,15.20
2022-09-17T14:46:14.092Z,15.40
2022-09-17T14:47:47.251Z,15.50
2022-09-17T14:49:23.677Z,15.60
2022-09-17T14:51:28.252Z,15.90
2022-09-17T14:53:09.317Z,15.50
2022-09-17T14:54:44.650Z,15.50
2022-09-17T14:56:19.396Z,15.30
2022-09-17T14:57:54.410Z,15.60
2022-09-17T14:59:37.381Z,15.50
2022-09-17T15:01:24.086Z,15.70
2022-09-17T15:02:59.596Z,15.30
2022-09-17T15:04:32.821Z,15.40
2022-09-17T15:06:06.503Z,15.30
2022-09-17T15:07:43.023Z,15.20
2022-09-17T15:09:19.600Z,15.10
2022-09-17T15:10:55.405Z,15.10
2022-09-17T15:12:30.865Z,15.10
2022-09-17T15:14:09.393Z,15.00
2022-09-17T15:15:58.439Z,14.90
2022-09-17T15:17:34.034Z,14.60
2022-09-17T15:19:07.160Z,14.70
2022-09-17T15:20:40.535Z,14.70
2022-09-17T15:22:18.070Z,14.70
2022-09-17T15:23:53.846Z,14.80
2022-09-17T15:25:31.194Z,14.80
2022-09-17T15:27:10.775Z,14.90
2022-09-17T15:28:46.609Z,14.90
2022-09-17T15:30:21.191Z,14.90
2022-09-17T15:31:55.937Z,14.90
2022-09-17T15:33:32.414Z,14.90
2022-09-17T15:35:23.946Z,15.00
2022-09-17T15:37:07.515Z,15.10
2022-09-17T15:38:42.360Z,15.20
2022-09-17T15:40:24.369Z,15.20
2022-09-17T15:41:58.359Z,15.20
2022-09-17T15:43:34.143Z,15.20
2022-09-17T15:45:19.081Z,15.20
2022-09-17T15:46:52.174Z,15.10
2022-09-17T15:48:38.510Z,15.30
2022-09-17T15:50:16.225Z,15.40
2022-09-17T15:51:50.110Z,15.40
2022-09-17T15:53:26.079Z,15.30
2022-09-17T15:54:59.378Z,15.20
2022-09-17T15:56:35.298Z,15.20
2022-09-17T15:58:23.587Z,15.30
2022-09-17T15:59:57.476Z,15.40
2022-09-17T16:01:52.888Z,15.10
2022-09-17T16:04:07.244Z,15.10
2022-09-17T16:05:46.465Z,15.00
2022-09-17T16:07:29.920Z,15.20
2022-09-17T16:09:03.056Z,15.10
2022-09-17T16:10:36.384Z,15.10
2022-09-17T16:12:12.945Z,15.00
2022-09-17T16:13:47.853Z,15.10
2022-09-17T16:15:21.071Z,15.00
2022-09-17T16:16:54.914Z,14.80
2022-09-17T16:18:28.009Z,14.50
2022-09-17T16:20:08.137Z,14.50
2022-09-17T16:21:41.274Z,14.40
2022-09-17T16:23:14.366Z,14.30
2022-09-17T16:24:46.424Z,14.30
2022-09-17T16:26:21.754Z,14.10
2022-09-17T16:27:58.798Z,14.10
2022-09-17T16:29:30.979Z,14.00
2022-09-17T16:31:04.138Z,14.00
2022-09-17T16:32:37.431Z,14.00
2022-09-17T16:34:10.692Z,14.00
2022-09-17T16:35:45.408Z,13.90
2022-09-17T16:37:18.668Z,13.90
2022-09-17T16:38:51.760Z,13.80
2022-09-17T16:40:28.010Z,13.70
2022-09-17T16:42:01.267Z,13.60
2022-09-17T16:43:35.432Z,13.50
2022-09-17T16:45:09.813Z,13.50
2022-09-17T16:46:43.035Z,13.40
2022-09-17T16:48:17.753Z,13.40
2022-09-17T16:49:50.004Z,13.30
2022-09-17T16:51:24.418Z,13.30
2022-09-17T16:53:01.522Z,13.20
2022-09-17T16:54:37.244Z,13.10
2022-09-17T16:56:11.606Z,13.10
2022-09-17T16:57:45.334Z,13.10
2022-09-17T16:59:18.555Z,13.20
2022-09-17T17:00:51.613Z,13.10
2022-09-17T17:02:25.042Z,13.00
2022-09-17T17:03:59.544Z,12.90
2022-09-17T17:05:38.728Z,12.90
2022-09-17T17:07:13.120Z,12.80
2022-09-17T17:08:46.253Z,12.70
2022-09-17T17:10:20.280Z,12.70
2022-09-17T17:11:53.345Z,12.70
2022-09-17T17:13:27.629Z,12.60
2022-09-17T17:15:01.224Z,12.60
2022-09-17T17:16:34.341Z,12.60
2022-09-17T17:18:07.708Z,12.50
2022-09-17T17:19:41.236Z,12.40
2022-09-17T17:21:15.618Z,12.50
2022-09-17T17:22:51.697Z,12.50
2022-09-17T17:24:25.085Z,12.50
2022-09-17T17:25:58.129Z,12.50
2022-09-17T17:27:31.237Z,12.40
2022-09-17T17:29:04.567Z,12.40
2022-09-17T17:30:38.382Z,12.30
2022-09-17T17:32:11.428Z,12.20
2022-09-17T17:33:44.610Z,12.10
2022-09-17T17:35:17.844Z,12.00
2022-09-17T17:36:50.966Z,12.00
2022-09-17T17:38:25.410Z,11.90
2022-09-17T17:39:58.901Z,11.80
2022-09-17T17:41:31.993Z,11.80
2022-09-17T17:43:05.046Z,11.80
2022-09-17T17:44:38.081Z,11.80
2022-09-17T17:46:12.658Z,11.80
2022-09-17T17:47:45.737Z,11.80
2022-09-17T17:49:18.803Z,11.80
2022-09-17T17:50:56.408Z,11.80
2022-09-17T17:52:30.014Z,11.80
2022-09-17T17:54:04.835Z,11.90
2022-09-17T17:55:38.287Z,11.90
2022-09-17T17:57:11.534Z,11.90
2022-09-17T17:58:44.774Z,12.00
2022-09-17T18:00:18.351Z,11.90
2022-09-17T18:01:51.871Z,11.80
2022-09-17T18:03:25.194Z,11.80
2022-09-17T18:05:03.395Z,11.80
2022-09-17T18:06:37.542Z,11.70
2022-09-17T18:08:09.604Z,11.70
2022-09-17T18:09:44.535Z,11.60
2022-09-17T18:11:17.633Z,11.60
2022-09-17T18:12:51.074Z,11.50
2022-09-17T18:14:24.155Z,11.50
2022-09-17T18:15:59.575Z,11.40
2022-09-17T18:17:32.628Z,11.40
2022-09-17T18:19:06.428Z,11.40
2022-09-17T18:20:39.462Z,11.50
2022-09-17T18:22:12.606Z,11.50
2022-09-17T18:23:46.476Z,11.40
2022-09-17T18:25:20.951Z,11.40
2022-09-17T18:26:53.998Z,11.30
2022-09-17T18:28:28.125Z,11.20
2022-09-17T18:30:01.168Z,11.20
2022-09-17T18:31:35.904Z,11.10
2022-09-17T18:33:09.104Z,11.10
2022-09-17T18:34:42.687Z,11.00
2022-09-17T18:36:15.811Z,11.10
2022-09-17T18:37:48.110Z,11.10
2022-09-17T18:39:56.942Z,11.00
2022-09-17T18:41:15.876Z,11.00
2022-09-17T18:42:49.752Z,11.00
2022-09-17T18:44:22.857Z,11.00
2022-09-17T18:45:56.511Z,11.00
2022-09-17T18:47:29.637Z,11.00
2022-09-17T18:49:03.200Z,11.00
2022-09-17T18:50:36.578Z,11.00
2022-09-17T18:52:09.625Z,11.00
2022-09-17T18:53:42.698Z,11.00
2022-09-17T18:55:15.947Z,11.00
2022-09-17T18:56:50.356Z,11.00
2022-09-17T18:58:23.794Z,10.90
2022-09-17T18:59:58.362Z,10.90
2022-09-17T19:01:32.641Z,10.90
2022-09-17T19:03:05.739Z,10.90
2022-09-17T19:04:38.830Z,10.80
2022-09-17T19:06:15.135Z,10.80
2022-09-17T19:07:48.715Z,10.80
2022-09-17T19:09:21.805Z,10.80
2022-09-17T19:10:55.336Z,10.80
2022-09-17T19:12:29.887Z,10.80
2022-09-17T19:14:03.136Z,10.80
2022-09-17T19:15:36.253Z,10.80
2022-09-17T19:17:09.982Z,10.80
2022-09-17T19:18:43.240Z,10.80
2022-09-17T19:20:19.554Z,10.80
2022-09-17T19:21:52.609Z,10.90
2022-09-17T19:23:25.652Z,10.90
2022-09-17T19:24:58.707Z,11.00
2022-09-17T19:26:31.879Z,11.00
2022-09-17T19:28:06.905Z,11.00
2022-09-17T19:29:39.972Z,11.10
2022-09-17T19:31:15.159Z,11.10
2022-09-17T19:32:48.486Z,11.10
2022-09-17T19:34:24.118Z,11.10
2022-09-17T19:36:00.680Z,11.10
2022-09-17T19:37:33.753Z,11.10
2022-09-17T19:39:07.029Z,11.20
2022-09-17T19:40:40.891Z,11.20
2022-09-17T19:42:14.182Z,11.20
2022-09-17T19:43:51.422Z,11.20
2022-09-17T19:45:24.568Z,11.20
2022-09-17T19:46:57.727Z,11.20
2022-09-17T19:48:31.186Z,11.20
2022-09-17T19:50:04.335Z,11.20
2022-09-17T19:51:37.747Z,11.10
2022-09-17T19:53:10.995Z,11.10
2022-09-17T19:54:44.035Z,11.10
2022-09-17T19:56:19.614Z,11.10
2022-09-17T19:57:52.859Z,11.10
2022-09-17T19:59:27.657Z,11.20
2022-09-17T20:01:00.969Z,11.20
2022-09-17T20:02:34.158Z,11.20
2022-09-17T20:04:08.058Z,11.10
2022-09-17T20:05:41.293Z,11.10
2022-09-17T20:07:14.575Z,11.10
2022-09-17T20:08:48.288Z,11.00
2022-09-17T20:10:21.575Z,10.90
2022-09-17T20:11:55.058Z,10.80
2022-09-17T20:13:31.412Z,10.80
2022-09-17T20:15:06.779Z,10.70
2022-09-17T20:16:40.984Z,10.60
2022-09-17T20:18:13.106Z,10.50
2022-09-17T20:19:46.179Z,10.40
2022-09-17T20:21:21.078Z,10.40
2022-09-17T20:22:54.114Z,10.40
2022-09-17T20:24:27.229Z,10.40
2022-09-17T20:26:00.470Z,10.40
2022-09-17T20:27:33.936Z,10.40
2022-09-17T20:29:07.041Z,10.30
2022-09-17T20:30:41.464Z,10.30
2022-09-17T20:32:14.515Z,10.30
2022-09-17T20:33:48.000Z,10.30
2022-09-17T20:35:21.458Z,10.20
2022-09-17T20:37:11.790Z,10.20
2022-09-17T20:40:39.358Z,10.00
2022-09-17T20:42:12.476Z,10.00
2022-09-17T20:43:46.650Z,10.00
2022-09-17T20:45:19.704Z,10.00
2022-09-17T20:46:54.662Z,9.90
2022-09-17T20:48:26.773Z,9.90
2022-09-17T20:49:59.834Z,9.90
2022-09-17T20:51:33.938Z,9.90
2022-09-17T20:53:07.213Z,9.90
2022-09-17T20:54:40.266Z,9.90
2022-09-17T20:56:14.986Z,9.90
2022-09-17T20:57:48.224Z,9.90
2022-09-17T20:59:24.926Z,10.00
2022-09-17T21:01:08.846Z,9.90
2022-09-17T21:02:50.234Z,10.00
2022-09-17T21:04:24.179Z,10.00
2022-09-17T21:05:56.335Z,10.00
2022-09-17T21:07:29.379Z,10.00
2022-09-17T21:09:03.379Z,9.90
2022-09-17T21:10:36.537Z,9.90
2022-09-17T21:12:10.461Z,9.80
2022-09-17T21:13:43.671Z,9.80
2022-09-17T21:15:16.842Z,9.80
2022-09-17T21:16:50.298Z,9.80
2022-09-17T21:18:23.815Z,9.80
2022-09-17T21:19:57.831Z,9.80
2022-09-17T21:21:34.279Z,9.80
2022-09-17T21:23:07.597Z,9.80
2022-09-17T21:24:40.660Z,9.80
2022-09-17T21:26:15.721Z,9.90
2022-09-17T21:27:48.981Z,9.90
2022-09-17T21:29:22.050Z,9.90
2022-09-17T21:31:03.961Z,10.00
2022-09-17T21:32:37.855Z,10.00
2022-09-17T21:34:14.510Z,10.00
2022-09-17T21:35:46.589Z,10.00
2022-09-17T21:37:19.646Z,10.00
2022-09-17T21:38:53.249Z,10.10
2022-09-17T21:40:26.356Z,10.10
2022-09-17T21:41:59.431Z,10.10
2022-09-17T21:43:33.196Z,10.10
2022-09-17T21:45:07.370Z,10.10
2022-09-17T21:46:40.828Z,10.10
2022-09-17T21:48:13.917Z,10.10
2022-09-17T21:49:48.372Z,10.20
2022-09-17T21:51:23.262Z,10.10
2022-09-17T21:52:55.319Z,10.20
2022-09-17T21:54:28.374Z,10.10
2022-09-17T21:56:05.315Z,10.10
2022-09-17T21:57:38.340Z,10.10
2022-09-17T21:59:13.674Z,10.10
2022-09-17T22:00:45.843Z,10.10
2022-09-17T22:02:18.909Z,10.10
2022-09-17T22:03:51.276Z,10.00
2022-09-17T22:05:25.700Z,10.00
2022-09-17T22:06:59.240Z,10.00
2022-09-17T22:08:32.820Z,10.00
2022-09-17T22:10:06.773Z,10.00
2022-09-17T22:11:39.065Z,9.90
2022-09-17T22:13:14.698Z,10.00
2022-09-17T22:14:48.136Z,10.00
2022-09-17T22:16:22.398Z,10.00
2022-09-17T22:17:55.503Z,10.00
2022-09-17T22:19:28.567Z,10.00
2022-09-17T22:21:12.034Z,10.00
2022-09-17T22:22:45.086Z,9.90
2022-09-17T22:24:19.267Z,9.90
2022-09-17T22:26:00.877Z,9.90
2022-09-17T22:27:33.942Z,9.90
2022-09-17T22:29:09.368Z,9.90
2022-09-17T22:30:41.814Z,9.90
2022-09-17T22:32:14.900Z,9.90
2022-09-17T22:33:50.028Z,9.90
2022-09-17T22:35:23.177Z,9.90
2022-09-17T22:36:57.610Z,9.90
2022-09-17T22:38:29.693Z,9.90
2022-09-17T22:40:03.118Z,9.90
2022-09-17T22:41:38.013Z,9.90
2022-09-17T22:43:11.067Z,9.90
2022-09-17T22:44:44.117Z,9.90
2022-09-17T22:46:19.849Z,9.90
2022-09-17T22:47:52.951Z,9.90
2022-09-17T22:49:26.052Z,9.90
2022-09-17T22:50:59.085Z,9.90
2022-09-17T22:52:33.650Z,9.90
2022-09-17T22:54:07.833Z,9.90
2022-09-17T22:55:40.912Z,10.00
2022-09-17T22:57:13.959Z,10.00
2022-09-17T22:58:47.707Z,10.00
2022-09-17T23:00:20.893Z,10.00
2022-09-17T23:01:54.031Z,9.90
2022-09-17T23:03:28.008Z,9.90
2022-09-17T23:05:01.085Z,9.80
2022-09-17T23:06:35.033Z,9.70
2022-09-17T23:08:09.538Z,9.60
2022-09-17T23:09:42.596Z,9.50
2022-09-17T23:11:19.352Z,9.40
2022-09-17T23:12:54.611Z,9.30
2022-09-17T23:14:27.672Z,9.30
2022-09-17T23:16:01.113Z,9.30
2022-09-17T23:17:35.564Z,9.30
2022-09-17T23:19:08.116Z,9.20
2022-09-17T23:20:41.153Z,9.20
2022-09-17T23:22:14.231Z,9.20
2022-09-17T23:23:49.421Z,9.20
2022-09-17T23:25:22.496Z,9.20
2022-09-17T23:26:56.770Z,9.20
2022-09-17T23:28:28.827Z,9.20
2022-09-17T23:30:02.078Z,9.20
2022-09-17T23:31:35.990Z,9.20
2022-09-17T23:33:09.386Z,9.20
2022-09-17T23:34:42.486Z,9.20
2022-09-17T23:36:16.565Z,9.20
2022-09-17T23:37:49.744Z,9.20
2022-09-17T23:39:24.186Z,9.20
2022-09-17T23:40:56.249Z,9.20
2022-09-17T23:42:29.398Z,9.20
2022-09-17T23:44:04.710Z,9.30
2022-09-17T23:45:37.767Z,9.30
2022-09-17T23:47:10.804Z,9.30
2022-09-17T23:48:44.520Z,9.30
2022-09-17T23:50:17.778Z,9.30
2022-09-17T23:51:50.882Z,9.30
2022-09-17T23:53:22.953Z,9.40
2022-09-17T23:54:58.543Z,9.40
2022-09-17T23:56:31.809Z,9.30
2022-09-17T23:58:04.906Z,9.30
2022-09-17T23:59:37.991Z,9.30
